Terminal Aerodrome Forecast
Issued by NWS

Home | Current Version | Previous Version | Text Only | Print | Product List | Glossary Off
Versions: 1 2 3 4 5 6 7 8 9 10 11 12 13 14 15 16 17
000 FTUS41 KBOX 251125 TAFACK TAF KACK 251125Z 2512/2612 30007KT P6SM SCT090 FM251500 28009KT P6SM FEW050 FEW250 FM251900 24011G21KT P6SM FEW050 FEW250 FM260400 24014G26KT P6SM BKN200=

USA.gov is the U.S. government's official web portal to all federal, state and local government web resources and services.